createdAt,value
2017-08-29T00:00:19.588Z,7.30
2017-08-29T00:02:47.502Z,7.10
2017-08-29T00:05:15.006Z,7.50
2017-08-29T00:07:42.566Z,9.10
2017-08-29T00:10:10.103Z,8.07
2017-08-29T00:12:37.670Z,7.93
2017-08-29T00:15:05.538Z,8.70
2017-08-29T00:17:33.063Z,8.00
2017-08-29T00:20:00.594Z,8.30
2017-08-29T00:22:28.165Z,8.97
2017-08-29T00:24:55.691Z,11.53
2017-08-29T00:27:23.580Z,10.43
2017-08-29T00:29:51.106Z,8.17
2017-08-29T00:32:19.408Z,8.10
2017-08-29T00:34:46.958Z,8.30
2017-08-29T00:37:14.493Z,9.03
2017-08-29T00:39:42.329Z,9.20
2017-08-29T00:42:09.857Z,8.07
2017-08-29T00:44:37.454Z,7.90
2017-08-29T00:47:04.990Z,8.23
2017-08-29T00:49:32.516Z,7.93
2017-08-29T00:52:00.366Z,8.40
2017-08-29T00:54:27.911Z,7.60
2017-08-29T00:56:55.422Z,7.90
2017-08-29T00:59:22.960Z,8.43
2017-08-29T01:01:50.494Z,8.40
2017-08-29T01:04:18.385Z,8.07
2017-08-29T01:06:45.918Z,8.13
2017-08-29T01:09:13.452Z,7.97
2017-08-29T01:11:41.012Z,6.40
2017-08-29T01:14:08.549Z,8.40
2017-08-29T01:16:36.411Z,8.97
2017-08-29T01:19:03.949Z,8.23
2017-08-29T01:21:31.468Z,8.73
2017-08-29T01:23:59.022Z,8.90
2017-08-29T01:26:26.555Z,7.90
2017-08-29T01:28:54.384Z,14.40
2017-08-29T01:31:21.928Z,9.03
2017-08-29T01:33:49.455Z,7.77
2017-08-29T01:36:17.031Z,9.07
2017-08-29T01:38:44.558Z,8.63
2017-08-29T01:41:12.404Z,9.33
2017-08-29T01:43:39.927Z,9.33
2017-08-29T01:46:07.451Z,9.57
2017-08-29T01:48:35.031Z,9.90
2017-08-29T01:51:02.572Z,8.23
2017-08-29T01:53:30.505Z,8.47
2017-08-29T01:55:58.065Z,9.50
2017-08-29T01:58:25.624Z,8.93
2017-08-29T02:00:53.194Z,8.90
2017-08-29T02:03:20.713Z,9.67
2017-08-29T02:05:48.608Z,8.83
2017-08-29T02:08:16.154Z,10.30
2017-08-29T02:10:43.724Z,10.07
2017-08-29T02:13:11.285Z,10.00
2017-08-29T02:15:38.807Z,10.23
2017-08-29T02:18:06.656Z,9.07
2017-08-29T02:20:34.171Z,8.60
2017-08-29T02:23:01.702Z,8.30
2017-08-29T02:25:29.259Z,9.60
2017-08-29T02:27:56.798Z,11.97
2017-08-29T02:30:24.613Z,9.37
2017-08-29T02:32:52.133Z,9.80
2017-08-29T02:35:19.697Z,9.60
2017-08-29T02:37:47.241Z,11.17
2017-08-29T02:40:14.833Z,10.20
2017-08-29T02:42:42.752Z,9.67
2017-08-29T02:45:10.277Z,10.30
2017-08-29T02:47:37.843Z,11.30
2017-08-29T02:50:05.420Z,10.50
2017-08-29T02:52:32.939Z,9.90
2017-08-29T02:55:00.766Z,10.40
2017-08-29T02:57:28.304Z,10.23
2017-08-29T02:59:55.836Z,11.37
2017-08-29T03:02:23.403Z,11.37
2017-08-29T03:04:50.927Z,10.97
2017-08-29T03:07:18.846Z,11.70
2017-08-29T03:09:46.372Z,10.47
2017-08-29T03:12:13.901Z,11.50
2017-08-29T03:14:41.467Z,11.77
2017-08-29T03:17:09.021Z,11.60
2017-08-29T03:19:36.871Z,12.20
2017-08-29T03:22:04.407Z,10.20
2017-08-29T03:24:31.931Z,10.90
2017-08-29T03:26:59.487Z,10.13
2017-08-29T03:29:27.019Z,11.10
2017-08-29T03:31:54.879Z,11.73
2017-08-29T03:34:22.421Z,10.63
2017-08-29T03:36:49.950Z,10.30
2017-08-29T03:39:17.504Z,10.60
2017-08-29T03:41:45.023Z,11.50
2017-08-29T03:44:12.873Z,10.23
2017-08-29T03:46:40.531Z,10.93
2017-08-29T03:49:08.089Z,10.57
2017-08-29T03:51:35.652Z,11.27
2017-08-29T03:54:03.176Z,10.70
2017-08-29T03:56:31.091Z,10.73
2017-08-29T03:58:58.612Z,12.50
2017-08-29T04:01:26.153Z,10.80
2017-08-29T04:03:53.715Z,11.27
2017-08-29T04:06:21.234Z,10.53
2017-08-29T04:08:49.083Z,10.20
2017-08-29T04:11:16.673Z,11.27
2017-08-29T04:13:44.233Z,11.53
2017-08-29T04:16:11.814Z,11.47
2017-08-29T04:18:39.365Z,10.10
2017-08-29T04:21:07.219Z,10.60
2017-08-29T04:23:34.747Z,10.70
2017-08-29T04:26:02.284Z,11.93
2017-08-29T04:28:29.845Z,10.93
2017-08-29T04:30:57.392Z,12.40
2017-08-29T04:33:25.300Z,11.70
2017-08-29T04:35:52.821Z,11.40
2017-08-29T04:38:20.383Z,15.33
2017-08-29T04:40:47.939Z,13.93
2017-08-29T04:43:15.475Z,11.97
2017-08-29T04:45:45.880Z,14.10
2017-08-29T04:48:13.426Z,13.37
2017-08-29T04:50:40.942Z,11.77
2017-08-29T04:53:08.491Z,17.43
2017-08-29T04:55:36.021Z,12.30
2017-08-29T04:58:03.883Z,16.67
2017-08-29T05:00:31.421Z,18.73
2017-08-29T05:02:58.983Z,17.23
2017-08-29T05:05:26.538Z,16.73
2017-08-29T05:07:54.056Z,22.20
2017-08-29T05:10:22.020Z,20.50
2017-08-29T05:12:49.567Z,22.30
2017-08-29T05:15:17.080Z,21.43
2017-08-29T05:17:44.661Z,19.77
2017-08-29T05:20:12.178Z,20.53
2017-08-29T05:22:40.006Z,16.10
2017-08-29T05:25:07.524Z,16.70
2017-08-29T05:27:35.043Z,14.50
2017-08-29T05:30:02.613Z,17.23
2017-08-29T05:32:30.158Z,15.23
2017-08-29T05:34:58.007Z,14.73
2017-08-29T05:37:25.526Z,12.50
2017-08-29T05:39:53.061Z,12.33
2017-08-29T05:42:20.629Z,12.83
2017-08-29T05:44:48.164Z,14.13
2017-08-29T05:47:16.021Z,15.00
2017-08-29T05:49:43.568Z,12.47
2017-08-29T05:52:11.106Z,12.50
2017-08-29T05:54:38.668Z,13.20
2017-08-29T05:57:06.208Z,11.80
2017-08-29T05:59:34.155Z,11.90
2017-08-29T06:02:01.711Z,11.03
2017-08-29T06:04:29.259Z,11.70
2017-08-29T06:06:56.797Z,11.00
2017-08-29T06:09:24.314Z,10.80
2017-08-29T06:11:52.247Z,11.27
2017-08-29T06:14:19.760Z,11.00
2017-08-29T06:16:47.288Z,10.17
2017-08-29T06:19:14.852Z,10.40
2017-08-29T06:21:42.390Z,10.20
2017-08-29T06:24:11.168Z,9.93
2017-08-29T06:26:38.699Z,9.73
2017-08-29T06:29:06.245Z,10.03
2017-08-29T06:31:33.809Z,8.97
2017-08-29T06:34:01.356Z,9.10
2017-08-29T06:36:29.170Z,11.77
2017-08-29T06:38:56.704Z,7.80
2017-08-29T06:41:24.274Z,9.40
2017-08-29T06:43:51.823Z,9.23
2017-08-29T06:46:19.395Z,7.20
2017-08-29T06:48:47.308Z,6.90
2017-08-29T06:51:14.885Z,5.83
2017-08-29T06:53:42.405Z,6.30
2017-08-29T06:56:09.966Z,6.30
2017-08-29T06:58:37.515Z,5.80
2017-08-29T07:01:05.390Z,5.33
2017-08-29T07:03:32.932Z,5.70
2017-08-29T07:06:00.463Z,6.90
2017-08-29T07:08:28.025Z,5.77
2017-08-29T07:10:56.319Z,5.80
2017-08-29T07:13:24.228Z,5.23
2017-08-29T07:15:51.766Z,5.10
2017-08-29T07:18:19.307Z,5.00
2017-08-29T07:20:46.866Z,7.20
2017-08-29T07:23:14.385Z,4.87
2017-08-29T07:25:42.242Z,5.30
2017-08-29T07:28:09.778Z,3.70
2017-08-29T07:30:37.295Z,9.03
2017-08-29T07:33:04.867Z,5.80
2017-08-29T07:35:32.399Z,4.70
2017-08-29T07:38:00.514Z,3.70
2017-08-29T07:40:28.062Z,4.20
2017-08-29T07:42:55.571Z,4.13
2017-08-29T07:45:23.122Z,4.53
2017-08-29T07:47:50.635Z,4.30
2017-08-29T07:50:18.476Z,3.80
2017-08-29T07:52:46.040Z,4.40
2017-08-29T07:55:13.584Z,3.77
2017-08-29T07:57:41.161Z,6.10
2017-08-29T08:00:08.831Z,4.53
2017-08-29T08:02:36.864Z,4.20
2017-08-29T08:05:04.411Z,5.60
2017-08-29T08:07:31.956Z,4.10
2017-08-29T08:09:59.488Z,4.27
2017-08-29T08:12:27.032Z,4.90
2017-08-29T08:14:54.874Z,3.90
2017-08-29T08:17:22.424Z,9.30
2017-08-29T08:19:49.971Z,4.23
2017-08-29T08:22:17.594Z,3.77
2017-08-29T08:24:45.135Z,5.13
2017-08-29T08:27:13.047Z,3.87
2017-08-29T08:29:40.573Z,4.20
2017-08-29T08:32:08.108Z,3.80
2017-08-29T08:34:35.701Z,5.17
2017-08-29T08:37:03.224Z,3.90
2017-08-29T08:39:31.087Z,5.30
2017-08-29T08:41:58.640Z,4.40
2017-08-29T08:44:26.176Z,3.73
2017-08-29T08:46:53.728Z,3.50
2017-08-29T08:49:21.252Z,3.80
2017-08-29T08:51:49.189Z,3.60
2017-08-29T08:54:16.760Z,4.80
2017-08-29T08:56:44.286Z,3.60
2017-08-29T08:59:11.842Z,5.13
2017-08-29T09:01:39.373Z,4.23
2017-08-29T09:04:07.217Z,5.20
2017-08-29T09:06:34.741Z,6.33
2017-08-29T09:09:02.318Z,3.97
2017-08-29T09:11:29.862Z,3.60
2017-08-29T09:13:57.416Z,4.37
2017-08-29T09:16:25.266Z,3.83
2017-08-29T09:18:52.783Z,3.90
2017-08-29T09:21:20.320Z,3.67
2017-08-29T09:23:47.884Z,3.83
2017-08-29T09:26:15.423Z,3.43
2017-08-29T09:28:43.319Z,5.43
2017-08-29T09:31:10.866Z,4.10
2017-08-29T09:33:38.404Z,3.50
2017-08-29T09:36:05.938Z,4.13
2017-08-29T09:38:33.492Z,3.63
2017-08-29T09:41:01.339Z,3.90
2017-08-29T09:43:28.874Z,3.40
2017-08-29T09:45:56.460Z,3.70
2017-08-29T09:48:24.030Z,3.37
2017-08-29T09:50:51.570Z,3.33
2017-08-29T09:53:19.529Z,3.67
2017-08-29T09:55:47.071Z,3.97
2017-08-29T09:58:14.625Z,3.70
2017-08-29T10:00:42.190Z,3.40
2017-08-29T10:03:09.711Z,3.40
2017-08-29T10:05:37.562Z,3.40
2017-08-29T10:08:05.092Z,3.67
2017-08-29T10:10:32.636Z,5.90
2017-08-29T10:13:00.955Z,3.07
2017-08-29T10:15:28.513Z,3.87
2017-08-29T10:17:56.370Z,3.63
2017-08-29T10:20:23.974Z,3.00
2017-08-29T10:22:51.516Z,3.47
2017-08-29T10:25:19.073Z,3.37
2017-08-29T10:27:46.625Z,3.57
2017-08-29T10:30:14.453Z,3.80
2017-08-29T10:32:41.984Z,4.40
2017-08-29T10:35:09.520Z,3.83
2017-08-29T10:37:37.113Z,3.90
2017-08-29T10:40:04.647Z,3.93
2017-08-29T10:42:32.499Z,5.00
2017-08-29T10:45:00.024Z,4.23
2017-08-29T10:47:28.310Z,3.63
2017-08-29T10:49:55.885Z,4.00
2017-08-29T10:52:23.429Z,3.67
2017-08-29T10:54:51.347Z,3.70
2017-08-29T10:57:18.886Z,3.43
2017-08-29T10:59:46.409Z,4.00
2017-08-29T11:02:13.966Z,5.20
2017-08-29T11:04:41.503Z,4.40
2017-08-29T11:07:09.329Z,4.60
2017-08-29T11:09:36.866Z,4.73
2017-08-29T11:12:04.369Z,4.10
2017-08-29T11:14:31.934Z,3.97
2017-08-29T11:16:59.470Z,4.00
2017-08-29T11:19:27.591Z,3.57
2017-08-29T11:21:55.108Z,5.13
2017-08-29T11:24:22.785Z,4.33
2017-08-29T11:26:50.755Z,4.17
2017-08-29T11:29:18.312Z,4.57
2017-08-29T11:31:45.838Z,4.60
2017-08-29T11:34:13.400Z,4.67
2017-08-29T11:36:40.931Z,4.20
2017-08-29T11:39:08.505Z,3.97
2017-08-29T11:41:36.021Z,4.80
2017-08-29T11:44:03.568Z,6.00
2017-08-29T11:46:31.119Z,5.67
2017-08-29T11:48:58.980Z,4.90
2017-08-29T11:51:26.524Z,7.47
2017-08-29T11:53:54.068Z,5.43
2017-08-29T11:56:21.603Z,6.93
2017-08-29T11:58:49.229Z,5.30
2017-08-29T12:01:17.131Z,10.63
2017-08-29T12:03:44.687Z,5.60
2017-08-29T12:06:12.233Z,5.00
2017-08-29T12:08:39.807Z,4.40
2017-08-29T12:11:07.361Z,4.70
2017-08-29T12:13:35.167Z,4.60
2017-08-29T12:16:02.689Z,10.30
2017-08-29T12:18:30.247Z,4.70
2017-08-29T12:20:57.793Z,5.63
2017-08-29T12:23:25.316Z,4.13
2017-08-29T12:25:53.236Z,4.70
2017-08-29T12:28:20.773Z,4.93
2017-08-29T12:30:48.309Z,4.33
2017-08-29T12:33:15.854Z,4.97
2017-08-29T12:35:43.377Z,4.40
2017-08-29T12:38:11.255Z,4.60
2017-08-29T12:40:38.768Z,4.30
2017-08-29T12:43:06.299Z,7.17
2017-08-29T12:45:33.880Z,6.23
2017-08-29T12:48:01.406Z,5.33
2017-08-29T12:50:29.255Z,5.27
2017-08-29T12:52:56.785Z,4.83
2017-08-29T12:55:24.371Z,4.20
2017-08-29T12:57:51.936Z,4.60
2017-08-29T13:00:19.456Z,5.03
2017-08-29T13:02:47.445Z,5.63
2017-08-29T13:05:14.985Z,4.67
2017-08-29T13:07:42.563Z,4.47
2017-08-29T13:10:10.113Z,4.37
2017-08-29T13:12:38.561Z,4.00
2017-08-29T13:15:06.549Z,4.63
2017-08-29T13:17:34.079Z,4.63
2017-08-29T13:20:01.599Z,5.00
2017-08-29T13:22:29.155Z,8.10
2017-08-29T13:24:56.703Z,6.37
2017-08-29T13:27:24.529Z,7.77
2017-08-29T13:29:52.165Z,7.90
2017-08-29T13:32:19.732Z,8.03
2017-08-29T13:34:47.334Z,8.50
2017-08-29T13:37:15.512Z,8.53
2017-08-29T13:39:43.433Z,9.30
2017-08-29T13:42:10.965Z,9.20
2017-08-29T13:44:38.497Z,8.60
2017-08-29T13:47:06.045Z,7.63
2017-08-29T13:49:34.494Z,8.50
2017-08-29T13:52:02.359Z,9.33
2017-08-29T13:54:30.262Z,5.93
2017-08-29T13:56:58.020Z,5.80
2017-08-29T13:59:25.598Z,5.83
2017-08-29T14:01:53.137Z,6.40
2017-08-29T14:04:20.963Z,7.10
2017-08-29T14:06:48.504Z,6.53
2017-08-29T14:09:16.031Z,5.97
2017-08-29T14:11:43.585Z,5.23
2017-08-29T14:14:11.129Z,5.53
2017-08-29T14:16:38.968Z,5.20
2017-08-29T14:19:06.602Z,5.40
2017-08-29T14:21:34.127Z,5.20
2017-08-29T14:24:01.757Z,5.17
2017-08-29T14:26:29.278Z,5.20
2017-08-29T14:28:57.185Z,4.80
2017-08-29T14:31:24.711Z,4.93
2017-08-29T14:33:52.252Z,5.67
2017-08-29T14:36:19.814Z,4.87
2017-08-29T14:38:47.346Z,4.97
2017-08-29T14:41:15.185Z,5.30
2017-08-29T14:43:42.723Z,4.77
2017-08-29T14:46:10.293Z,4.67
2017-08-29T14:48:49.772Z,5.60
2017-08-29T14:51:17.331Z,4.70
2017-08-29T14:53:45.196Z,4.70
2017-08-29T14:56:12.717Z,4.10
2017-08-29T14:58:40.265Z,4.90
2017-08-29T15:01:07.858Z,5.70
2017-08-29T15:03:35.390Z,4.67
2017-08-29T15:06:03.237Z,4.57
2017-08-29T15:08:30.811Z,4.67
2017-08-29T15:10:58.380Z,5.10
2017-08-29T15:13:25.947Z,6.13
2017-08-29T15:15:53.491Z,5.77
2017-08-29T15:18:21.526Z,5.03
2017-08-29T15:20:49.056Z,5.40
2017-08-29T15:23:16.602Z,6.57
2017-08-29T15:25:44.176Z,6.10
2017-08-29T15:28:11.714Z,5.77
2017-08-29T15:30:39.624Z,5.70
2017-08-29T15:33:07.176Z,5.87
2017-08-29T15:35:34.754Z,5.50
2017-08-29T15:38:02.387Z,5.40
2017-08-29T15:40:29.922Z,6.90
2017-08-29T15:42:57.836Z,7.00
2017-08-29T15:45:25.374Z,12.83
2017-08-29T15:47:52.903Z,5.80
2017-08-29T15:50:20.463Z,6.10
2017-08-29T15:52:48.001Z,5.90
2017-08-29T15:55:15.982Z,5.27
2017-08-29T15:57:43.552Z,5.80
2017-08-29T16:00:11.097Z,5.50
2017-08-29T16:02:38.674Z,5.70
2017-08-29T16:05:06.223Z,7.47
2017-08-29T16:07:34.184Z,5.87
2017-08-29T16:10:01.699Z,5.60
2017-08-29T16:12:29.382Z,5.77
2017-08-29T16:14:56.943Z,6.07
2017-08-29T16:17:25.280Z,6.40
2017-08-29T16:19:53.151Z,6.90
2017-08-29T16:22:20.668Z,6.97
2017-08-29T16:24:48.188Z,6.47
2017-08-29T16:27:15.730Z,5.77
2017-08-29T16:29:43.265Z,6.53
2017-08-29T16:32:11.226Z,6.33
2017-08-29T16:34:38.730Z,6.60
2017-08-29T16:37:06.256Z,6.10
2017-08-29T16:39:33.873Z,6.27
2017-08-29T16:42:02.721Z,6.17
2017-08-29T16:44:30.632Z,6.90
2017-08-29T16:46:58.156Z,6.20
2017-08-29T16:49:25.685Z,6.53
2017-08-29T16:51:53.280Z,7.00
2017-08-29T16:54:20.813Z,6.37
2017-08-29T16:56:48.640Z,7.23
2017-08-29T16:59:16.184Z,6.80
2017-08-29T17:01:43.716Z,8.07
2017-08-29T17:04:11.264Z,7.20
2017-08-29T17:06:38.794Z,7.13
2017-08-29T17:09:06.665Z,7.07
2017-08-29T17:11:34.225Z,6.80
2017-08-29T17:14:01.757Z,6.60
2017-08-29T17:16:29.343Z,8.40
2017-08-29T17:18:56.915Z,6.30
2017-08-29T17:21:24.797Z,7.00
2017-08-29T17:23:52.332Z,7.60
2017-08-29T17:26:19.852Z,7.70
2017-08-29T17:28:47.429Z,7.20
2017-08-29T17:31:15.171Z,6.63
2017-08-29T17:33:43.776Z,6.93
2017-08-29T17:36:11.325Z,7.50
2017-08-29T17:38:38.915Z,6.50
2017-08-29T17:41:06.476Z,7.33
2017-08-29T17:43:34.051Z,7.73
2017-08-29T17:46:01.928Z,7.97
2017-08-29T17:48:29.486Z,9.63
2017-08-29T17:50:57.008Z,7.07
2017-08-29T17:53:24.570Z,6.43
2017-08-29T17:55:52.107Z,6.40
2017-08-29T17:58:19.971Z,7.90
2017-08-29T18:00:47.519Z,5.97
2017-08-29T18:03:15.052Z,6.87
2017-08-29T18:05:42.609Z,6.10
2017-08-29T18:08:10.158Z,6.60
2017-08-29T18:10:38.025Z,6.07
2017-08-29T18:13:05.549Z,7.30
2017-08-29T18:15:33.095Z,5.90
2017-08-29T18:18:00.676Z,6.37
2017-08-29T18:20:28.236Z,6.13
2017-08-29T18:22:56.090Z,6.47
2017-08-29T18:25:23.642Z,5.90
2017-08-29T18:27:51.242Z,5.50
2017-08-29T18:30:18.812Z,6.20
2017-08-29T18:32:46.386Z,6.00
2017-08-29T18:35:14.251Z,6.20
2017-08-29T18:37:41.796Z,6.10
2017-08-29T18:40:09.324Z,6.17
2017-08-29T18:42:36.911Z,7.57
2017-08-29T18:45:04.446Z,6.50
2017-08-29T18:47:32.364Z,5.50
2017-08-29T18:49:59.925Z,7.17
2017-08-29T18:52:27.459Z,5.83
2017-08-29T18:54:55.097Z,5.90
2017-08-29T18:57:22.695Z,5.50
2017-08-29T18:59:50.521Z,5.90
2017-08-29T19:02:18.057Z,5.67
2017-08-29T19:04:46.264Z,5.90
2017-08-29T19:07:13.861Z,4.73
2017-08-29T19:09:41.466Z,6.13
2017-08-29T19:12:09.455Z,5.73
2017-08-29T19:14:37.011Z,4.97
2017-08-29T19:17:04.553Z,5.27
2017-08-29T19:19:32.140Z,5.60
2017-08-29T19:21:59.731Z,5.70
2017-08-29T19:24:27.656Z,5.17
2017-08-29T19:26:55.206Z,7.03
2017-08-29T19:29:22.780Z,5.90
2017-08-29T19:31:50.352Z,6.07
2017-08-29T19:34:17.948Z,6.43
2017-08-29T19:36:45.776Z,7.33
2017-08-29T19:39:13.318Z,5.80
2017-08-29T19:41:40.977Z,5.37
2017-08-29T19:44:08.559Z,6.00
2017-08-29T19:46:36.128Z,6.70
2017-08-29T19:49:04.158Z,5.90
2017-08-29T19:51:31.724Z,6.73
2017-08-29T19:53:59.269Z,5.97
2017-08-29T19:56:26.852Z,6.50
2017-08-29T19:58:54.411Z,7.17
2017-08-29T20:01:22.254Z,6.50
2017-08-29T20:03:49.830Z,6.10
2017-08-29T20:06:17.365Z,6.47
2017-08-29T20:08:44.923Z,6.47
2017-08-29T20:11:12.450Z,7.23
2017-08-29T20:13:40.018Z,6.43
2017-08-29T20:16:07.602Z,8.43
2017-08-29T20:18:35.159Z,5.90
2017-08-29T20:21:02.717Z,7.10
2017-08-29T20:23:30.246Z,7.37
2017-08-29T20:25:57.810Z,6.27
2017-08-29T20:28:25.357Z,5.90
2017-08-29T20:30:52.909Z,6.90
2017-08-29T20:33:20.445Z,6.73
2017-08-29T20:35:47.970Z,6.23
2017-08-29T20:38:15.594Z,6.97
2017-08-29T20:40:43.137Z,6.13
2017-08-29T20:43:10.745Z,6.83
2017-08-29T20:45:38.413Z,7.00
2017-08-29T20:48:05.998Z,6.83
2017-08-29T20:50:33.573Z,6.70
2017-08-29T20:53:01.108Z,7.53
2017-08-29T20:55:29.329Z,6.70
2017-08-29T20:57:56.870Z,11.73
2017-08-29T21:00:24.426Z,7.07
2017-08-29T21:02:51.999Z,7.37
2017-08-29T21:05:19.568Z,7.00
2017-08-29T21:07:47.672Z,7.00
2017-08-29T21:10:15.228Z,7.87
2017-08-29T21:12:42.794Z,7.50
2017-08-29T21:15:10.341Z,8.90
2017-08-29T21:17:37.914Z,7.77
2017-08-29T21:20:05.457Z,7.47
2017-08-29T21:22:33.053Z,8.73
2017-08-29T21:25:00.567Z,8.50
2017-08-29T21:27:28.366Z,7.50
2017-08-29T21:29:55.898Z,9.17
2017-08-29T21:32:23.416Z,8.77
2017-08-29T21:34:51.394Z,8.70
2017-08-29T21:37:18.917Z,8.73
2017-08-29T21:39:46.440Z,7.90
2017-08-29T21:42:14.297Z,9.00
2017-08-29T21:44:41.859Z,8.40
2017-08-29T21:47:09.399Z,10.20
2017-08-29T21:49:37.371Z,7.23
2017-08-29T21:52:04.924Z,8.07
2017-08-29T21:54:32.445Z,8.27
2017-08-29T21:57:00.281Z,6.97
2017-08-29T21:59:27.816Z,9.30
2017-08-29T22:01:55.363Z,8.13
2017-08-29T22:04:23.240Z,8.40
2017-08-29T22:06:50.994Z,7.97
2017-08-29T22:09:18.605Z,7.93
2017-08-29T22:11:46.419Z,8.27
2017-08-29T22:14:13.977Z,7.73
2017-08-29T22:16:41.509Z,8.70
2017-08-29T22:19:09.349Z,7.70
2017-08-29T22:21:36.888Z,9.70
2017-08-29T22:24:04.403Z,8.87
2017-08-29T22:26:31.957Z,8.80
2017-08-29T22:28:59.471Z,8.47
2017-08-29T22:31:27.431Z,8.37
2017-08-29T22:33:54.973Z,8.67
2017-08-29T22:36:22.503Z,8.57
2017-08-29T22:38:50.052Z,8.93
2017-08-29T22:41:17.584Z,8.43
2017-08-29T22:43:45.483Z,10.43
2017-08-29T22:46:13.024Z,10.77
2017-08-29T22:48:40.548Z,10.60
2017-08-29T22:51:08.085Z,9.87
2017-08-29T22:53:35.620Z,9.30
2017-08-29T22:56:03.654Z,10.30
2017-08-29T22:58:31.234Z,13.97
2017-08-29T23:00:58.760Z,9.27
2017-08-29T23:03:26.327Z,9.83
2017-08-29T23:05:53.899Z,9.53
2017-08-29T23:08:21.735Z,10.00
2017-08-29T23:10:49.277Z,8.43
2017-08-29T23:13:16.807Z,9.90
2017-08-29T23:15:44.401Z,9.43
2017-08-29T23:18:11.929Z,9.00
2017-08-29T23:20:39.884Z,8.67
2017-08-29T23:23:07.486Z,9.30
2017-08-29T23:25:34.991Z,9.20
2017-08-29T23:28:02.537Z,8.23
2017-08-29T23:30:30.077Z,8.80
2017-08-29T23:32:58.721Z,8.63
2017-08-29T23:35:26.236Z,8.23
2017-08-29T23:37:53.767Z,8.57
2017-08-29T23:40:21.335Z,8.40
2017-08-29T23:42:48.871Z,8.77
2017-08-29T23:45:16.705Z,9.17
2017-08-29T23:47:44.229Z,9.00
2017-08-29T23:50:11.760Z,8.50
2017-08-29T23:52:39.295Z,8.37
2017-08-29T23:55:06.823Z,8.10
2017-08-29T23:57:34.654Z,8.00
